^^
Datos históricos de la estación: Murcia-Puente Tocinos
Diario Informe para Agosto 24, 2019 Unidades:  Ambas    Ingés   Métrico
Diario Semanal Mensual Anual
  Máxima: Mínima: Promedio:
Temperatura: 69.8 °F /  21 °C 53.1 °F /  11.7 °C 61.9 °F /  16.6 °C
Punto de rocio: 49.6 °F /  9.8 °C 44.8 °F /  7.1 °C 47.3 °F /  8.5 °C
Humedad: 81% 41.5% 60%
Velocidad viento: 10.7mph /  17.2km/h - 5.2mph /  8.4km/h
Racha viento: 23.5mph /  37.8km/h - -
Viento- - SO
Presión: 30.2 in /  1021.3 hPa 29.9 in /  1010.8 hPa -
Precipitación: 0 in /  0.0 mm    
 
 
Tabla de datos para Agosto 24, 2019
Hora Temperatura Punto de rocio Presión Viento Velocidad viento Racha viento Humedad Intensidad lluvia(por hora) Nubes
00:04 58.5 °F /  14.7 °C 48.2 °F /  9 °C 29.9in /  1010.8hPa SSO 4.8mph /  7.8km/h 8mph /  12.9km/h 68.7% 0in /  0.0mm
00:09 58.6 °F /  14.8 °C 48 °F /  8.9 °C 29.9in /  1010.8hPa SO 4.7mph /  7.6km/h 7.4mph /  11.9km/h 68% 0in /  0.0mm
00:14 58.6 °F /  14.8 °C 47.8 °F /  8.8 °C 29.9in /  1010.8hPa OSO 4.4mph /  7.1km/h 9.2mph /  14.8km/h 67.2% 0in /  0.0mm
00:19 58.6 °F /  14.8 °C 47.7 °F /  8.7 °C 29.9in /  1010.8hPa OSO 4.3mph /  6.9km/h 8.5mph /  13.7km/h 66.7% 0in /  0.0mm
00:24 58.8 °F /  14.9 °C 47.5 °F /  8.6 °C 29.9in /  1011.0hPa SO 4.6mph /  7.4km/h 9mph /  14.5km/h 66% 0in /  0.0mm
00:29 58.8 °F /  14.9 °C 47.5 °F /  8.6 °C 29.9in /  1011.0hPa SO 4.7mph /  7.6km/h 8.7mph /  14km/h 66% 0in /  0.0mm
00:34 58.8 °F /  14.9 °C 47.5 °F /  8.6 °C 29.9in /  1011.0hPa SSO 4.7mph /  7.6km/h 9.2mph /  14.8km/h 65.9% 0in /  0.0mm
00:39 58.8 °F /  14.9 °C 47.7 °F /  8.7 °C 29.9in /  1011.0hPa Sur 4.7mph /  7.6km/h 9mph /  14.5km/h 66.3% 0in /  0.0mm
00:44 58.6 °F /  14.8 °C 47.8 °F /  8.8 °C 29.9in /  1010.9hPa Sur 4.4mph /  7.1km/h 8mph /  12.9km/h 67.2% 0in /  0.0mm
00:49 58.5 °F /  14.7 °C 47.8 °F /  8.8 °C 29.9in /  1010.9hPa SSO 4.3mph /  6.9km/h 6.9mph /  11.1km/h 67.9% 0in /  0.0mm
00:54 58.5 °F /  14.7 °C 47.8 °F /  8.8 °C 29.9in /  1010.9hPa SSO 4.1mph /  6.6km/h 7mph /  11.3km/h 68% 0in /  0.0mm
00:59 58.5 °F /  14.7 °C 47.8 °F /  8.8 °C 29.9in /  1010.8hPa Sur 4mph /  6.5km/h 6mph /  9.7km/h 68.2% 0in /  0.0mm
01:04 58.3 °F /  14.6 °C 48.2 °F /  9 °C 29.9in /  1010.8hPa Sur 2.9mph /  4.6km/h 4.3mph /  6.9km/h 69.1% 0in /  0.0mm
01:09 58.1 °F /  14.5 °C 48.6 °F /  9.2 °C 29.9in /  1011.0hPa SE 2.4mph /  3.9km/h 5mph /  8km/h 70.8% 0in /  0.0mm
01:14 57.7 °F /  14.3 °C 48.9 °F /  9.4 °C 29.9in /  1011.0hPa SE 2.4mph /  3.9km/h 5mph /  8km/h 72.4% 0in /  0.0mm
01:19 57.4 °F /  14.1 °C 48.9 °F /  9.4 °C 29.9in /  1011.0hPa SSE 2.4mph /  3.9km/h 5.9mph /  9.5km/h 73.3% 0in /  0.0mm
01:24 57 °F /  13.9 °C 48.9 °F /  9.4 °C 29.9in /  1011.0hPa Sur 3mph /  4.9km/h 6mph /  9.7km/h 74% 0in /  0.0mm
01:29 57 °F /  13.9 °C 48.9 °F /  9.4 °C 29.9in /  1010.9hPa Sur 3.6mph /  5.8km/h 5.2mph /  8.4km/h 74.4% 0in /  0.0mm
01:34 57 °F /  13.9 °C 48.9 °F /  9.4 °C 29.9in /  1010.9hPa Sur 3.6mph /  5.8km/h 5mph /  8km/h 74.1% 0in /  0.0mm
01:39 57 °F /  13.9 °C 48.7 °F /  9.3 °C 29.9in /  1010.9hPa Sur 3.6mph /  5.8km/h 5mph /  8km/h 74% 0in /  0.0mm
01:44 57 °F /  13.9 °C 48.9 °F /  9.4 °C 29.9in /  1010.9hPa SSO 3.1mph /  5km/h 5mph /  8km/h 74% 0in /  0.0mm
01:49 57.2 °F /  14 °C 48.7 °F /  9.3 °C 29.9in /  1010.9hPa Sur 2.9mph /  4.7km/h 5mph /  8km/h 73.3% 0in /  0.0mm
01:54 57.4 °F /  14.1 °C 48.7 °F /  9.3 °C 29.9in /  1010.9hPa Sur 2.9mph /  4.7km/h 5mph /  8km/h 73% 0in /  0.0mm
01:59 57.4 °F /  14.1 °C 48.9 °F /  9.4 °C 29.9in /  1010.9hPa SSE 2.9mph /  4.7km/h 3.6mph /  5.8km/h 73.2% 0in /  0.0mm
02:04 57.4 °F /  14.1 °C 48.9 °F /  9.4 °C 29.9in /  1010.9hPa Sur 2.2mph /  3.6km/h 4.6mph /  7.4km/h 73.5% 0in /  0.0mm
02:09 57.4 °F /  14.1 °C 48.7 °F /  9.3 °C 29.9in /  1010.9hPa Sur 2mph /  3.2km/h 5.2mph /  8.4km/h 73% 0in /  0.0mm
02:14 57.4 °F /  14.1 °C 48.6 °F /  9.2 °C 29.9in /  1010.9hPa OSO 2.6mph /  4.2km/h 5.2mph /  8.4km/h 72.4% 0in /  0.0mm
02:19 57.4 °F /  14.1 °C 48.7 °F /  9.3 °C 29.9in /  1010.9hPa SO 2.9mph /  4.7km/h 5mph /  8km/h 72.6% 0in /  0.0mm
02:24 57.4 °F /  14.1 °C 48.4 °F /  9.1 °C 29.9in /  1011.0hPa SSO 2.5mph /  4.1km/h 5mph /  8km/h 72.1% 0in /  0.0mm
02:29 57.4 °F /  14.1 °C 48.4 °F /  9.1 °C 29.9in /  1011.0hPa SSO 2.4mph /  3.9km/h 5.8mph /  9.3km/h 72% 0in /  0.0mm
02:34 57.4 °F /  14.1 °C 48.4 °F /  9.1 °C 29.9in /  1011.0hPa Sur 3.2mph /  5.1km/h 6mph /  9.7km/h 72% 0in /  0.0mm
02:39 57.4 °F /  14.1 °C 48.4 °F /  9.1 °C 29.9in /  1011.1hPa Sur 3.6mph /  5.8km/h 5mph /  8km/h 72% 0in /  0.0mm
02:44 57.4 °F /  14.1 °C 48.4 °F /  9.1 °C 29.9in /  1011.1hPa Sur 3.1mph /  5km/h 5.8mph /  9.3km/h 72% 0in /  0.0mm
02:49 57 °F /  13.9 °C 48.4 °F /  9.1 °C 29.9in /  1011.1hPa Sur 2.9mph /  4.7km/h 6mph /  9.7km/h 72.9% 0in /  0.0mm
02:54 57 °F /  13.9 °C 48.4 °F /  9.1 °C 29.9in /  1011.3hPa SSO 3.6mph /  5.8km/h 6mph /  9.7km/h 73% 0in /  0.0mm
02:59 56.8 °F /  13.8 °C 48 °F /  8.9 °C 29.9in /  1011.3hPa SSO 4mph /  6.5km/h 6.2mph /  10km/h 72.1% 0in /  0.0mm
03:04 57 °F /  13.9 °C 48 °F /  8.9 °C 29.9in /  1011.3hPa SSO 4.2mph /  6.8km/h 6mph /  9.7km/h 72% 0in /  0.0mm
03:09 57 °F /  13.9 °C 48 °F /  8.9 °C 29.9in /  1011.5hPa SSO 4.3mph /  6.9km/h 6mph /  9.7km/h 72% 0in /  0.0mm
03:14 56.8 °F /  13.8 °C 48 °F /  8.9 °C 29.9in /  1011.5hPa SSO 3.9mph /  6.2km/h 6mph /  9.7km/h 72% 0in /  0.0mm
03:19 56.8 °F /  13.8 °C 47.8 °F /  8.8 °C 29.9in /  1011.5hPa SO 3.6mph /  5.8km/h 5mph /  8km/h 72% 0in /  0.0mm
03:24 56.8 °F /  13.8 °C 47.8 °F /  8.8 °C 29.9in /  1011.6hPa SSO 3.2mph /  5.2km/h 5.4mph /  8.7km/h 72% 0in /  0.0mm
03:29 56.8 °F /  13.8 °C 47.8 °F /  8.8 °C 29.9in /  1011.6hPa SSO 3.1mph /  5km/h 6mph /  9.7km/h 72% 0in /  0.0mm
03:34 56.7 °F /  13.7 °C 47.7 °F /  8.7 °C 29.9in /  1011.6hPa SSO 3.7mph /  6km/h 6.4mph /  10.3km/h 72% 0in /  0.0mm
03:39 56.7 °F /  13.7 °C 47.7 °F /  8.7 °C 29.9in /  1011.8hPa SSO 4mph /  6.5km/h 7mph /  11.3km/h 72% 0in /  0.0mm
03:44 56.7 °F /  13.7 °C 47.7 °F /  8.7 °C 29.9in /  1011.8hPa SSO 4.2mph /  6.8km/h 7.4mph /  11.9km/h 72% 0in /  0.0mm
03:49 56.5 °F /  13.6 °C 47.7 °F /  8.7 °C 29.9in /  1011.8hPa SSO 4.3mph /  6.9km/h 9.2mph /  14.8km/h 72% 0in /  0.0mm
03:54 56.5 °F /  13.6 °C 47.7 °F /  8.7 °C 29.9in /  1011.8hPa SSO 4.9mph /  7.9km/h 9mph /  14.5km/h 72% 0in /  0.0mm
03:59 56.5 °F /  13.6 °C 47.3 °F /  8.5 °C 29.9in /  1011.7hPa SSO 5.2mph /  8.4km/h 9.2mph /  14.8km/h 71.1% 0in /  0.0mm
04:04 56.5 °F /  13.6 °C 46.9 °F /  8.3 °C 29.9in /  1011.7hPa SO 5.2mph /  8.4km/h 9mph /  14.5km/h 70.2% 0in /  0.0mm
04:09 56.7 °F /  13.7 °C 46.9 °F /  8.3 °C 29.9in /  1011.8hPa SO 5.2mph /  8.4km/h 9.2mph /  14.8km/h 70% 0in /  0.0mm
04:14 56.7 °F /  13.7 °C 46.9 °F /  8.3 °C 29.9in /  1011.8hPa SO 4.8mph /  7.8km/h 9mph /  14.5km/h 70% 0in /  0.0mm
04:19 56.7 °F /  13.7 °C 46.9 °F /  8.3 °C 29.9in /  1011.8hPa SO 4.7mph /  7.6km/h 8mph /  12.9km/h 70% 0in /  0.0mm
04:24 56.5 °F /  13.6 °C 46.8 °F /  8.2 °C 29.9in /  1011.8hPa SSO 4.4mph /  7.1km/h 8.1mph /  13km/h 70.1% 0in /  0.0mm
04:29 56.5 °F /  13.6 °C 47.1 °F /  8.4 °C 29.9in /  1011.7hPa SSO 4.3mph /  6.9km/h 9.7mph /  15.6km/h 71% 0in /  0.0mm
04:34 56.1 °F /  13.4 °C 47.1 °F /  8.4 °C 29.9in /  1011.7hPa SSO 5.4mph /  8.7km/h 10mph /  16.1km/h 71.8% 0in /  0.0mm
04:39 55.9 °F /  13.3 °C 47.1 °F /  8.4 °C 29.9in /  1012.0hPa SSO 5.9mph /  9.5km/h 9mph /  14.5km/h 72.5% 0in /  0.0mm
04:44 55.8 °F /  13.2 °C 47.1 °F /  8.4 °C 29.9in /  1012.0hPa SSO 5.4mph /  8.7km/h 8.1mph /  13km/h 73% 0in /  0.0mm
04:49 55.8 °F /  13.2 °C 47.1 °F /  8.4 °C 29.9in /  1012.0hPa SSO 5.2mph /  8.4km/h 8.1mph /  13km/h 72.9% 0in /  0.0mm
04:54 55.8 °F /  13.2 °C 46.9 °F /  8.3 °C 29.9in /  1012.1hPa SSO 5.2mph /  8.4km/h 9.7mph /  15.6km/h 72% 0in /  0.0mm
04:59 55.9 °F /  13.3 °C 46.8 °F /  8.2 °C 29.9in /  1012.1hPa SSO 5.2mph /  8.4km/h 10mph /  16.1km/h 71.6% 0in /  0.0mm
05:04 55.9 °F /  13.3 °C 46.9 °F /  8.3 °C 29.9in /  1012.1hPa SSO 5.3mph /  8.6km/h 9mph /  14.5km/h 71.6% 0in /  0.0mm
05:09 55.9 °F /  13.3 °C 46.9 °F /  8.3 °C 29.9in /  1012.2hPa SO 5.4mph /  8.7km/h 8.5mph /  13.7km/h 72% 0in /  0.0mm
05:14 55.8 °F /  13.2 °C 46.9 °F /  8.3 °C 29.9in /  1012.2hPa SO 5mph /  8km/h 9mph /  14.5km/h 72.2% 0in /  0.0mm
05:19 55.6 °F /  13.1 °C 47.1 °F /  8.4 °C 29.9in /  1012.2hPa SO 4.7mph /  7.6km/h 7mph /  11.3km/h 73% 0in /  0.0mm
05:24 55.2 °F /  12.9 °C 46.8 °F /  8.2 °C 29.9in /  1012.2hPa SO 4.2mph /  6.8km/h 7mph /  11.3km/h 73.3% 0in /  0.0mm
05:29 55.2 °F /  12.9 °C 47.1 °F /  8.4 °C 29.9in /  1012.2hPa SSO 4mph /  6.5km/h 6mph /  9.7km/h 74% 0in /  0.0mm
05:34 55 °F /  12.8 °C 46.9 °F /  8.3 °C 29.9in /  1012.2hPa SSO 3.7mph /  6km/h 8.1mph /  13km/h 74% 0in /  0.0mm
05:39 55 °F /  12.8 °C 46.9 °F /  8.3 °C 29.9in /  1012.4hPa SSO 3.6mph /  5.8km/h 8.1mph /  13km/h 74.1% 0in /  0.0mm
05:44 55 °F /  12.8 °C 47.3 °F /  8.5 °C 29.9in /  1012.4hPa SO 4.7mph /  7.5km/h 8mph /  12.9km/h 75% 0in /  0.0mm
05:49 55 °F /  12.8 °C 47.3 °F /  8.5 °C 29.9in /  1012.4hPa SO 5.2mph /  8.4km/h 7mph /  11.3km/h 75% 0in /  0.0mm
05:54 55 °F /  12.8 °C 47.3 °F /  8.5 °C 29.9in /  1012.4hPa SO 4.4mph /  7.1km/h 6mph /  9.7km/h 75% 0in /  0.0mm
05:59 55 °F /  12.8 °C 47.3 °F /  8.5 °C 29.9in /  1012.3hPa SO 4mph /  6.5km/h 6.2mph /  10km/h 75% 0in /  0.0mm
06:04 55 °F /  12.8 °C 47.5 °F /  8.6 °C 29.9in /  1012.3hPa SSO 3.7mph /  6km/h 6mph /  9.7km/h 75.4% 0in /  0.0mm
06:09 55.2 °F /  12.9 °C 47.5 °F /  8.6 °C 29.9in /  1012.3hPa SSO 3.6mph /  5.8km/h 7.4mph /  11.9km/h 75% 0in /  0.0mm
06:14 55.2 °F /  12.9 °C 47.5 °F /  8.6 °C 29.9in /  1012.3hPa Sur 4mph /  6.5km/h 7mph /  11.3km/h 75% 0in /  0.0mm
06:19 55.2 °F /  12.9 °C 47.5 °F /  8.6 °C 29.9in /  1012.3hPa SSO 4.3mph /  6.9km/h 7mph /  11.3km/h 75% 0in /  0.0mm
06:24 55.2 °F /  12.9 °C 47.5 °F /  8.6 °C 29.9in /  1012.5hPa SSO 3.9mph /  6.2km/h 8.1mph /  13km/h 75% 0in /  0.0mm
06:29 55.2 °F /  12.9 °C 47.5 °F /  8.6 °C 29.9in /  1012.5hPa SSO 3.6mph /  5.8km/h 8mph /  12.9km/h 75% 0in /  0.0mm
06:34 55.2 °F /  12.9 °C 47.5 °F /  8.6 °C 29.9in /  1012.5hPa SSO 4.3mph /  7km/h 8.1mph /  13km/h 75% 0in /  0.0mm
06:39 55.2 °F /  12.9 °C 47.5 °F /  8.6 °C 29.9in /  1012.7hPa SSO 4.7mph /  7.6km/h 8.5mph /  13.7km/h 75% 0in /  0.0mm
06:44 55.2 °F /  12.9 °C 47.5 °F /  8.6 °C 29.9in /  1012.7hPa SSO 5.2mph /  8.3km/h 9.7mph /  15.6km/h 75% 0in /  0.0mm
06:49 55.2 °F /  12.9 °C 47.3 °F /  8.5 °C 29.9in /  1012.7hPa SO 5.4mph /  8.7km/h 10.4mph /  16.7km/h 75% 0in /  0.0mm
06:54 55 °F /  12.8 °C 47.5 °F /  8.6 °C 29.9in /  1013.1hPa OSO 5.7mph /  9.2km/h 10mph /  16.1km/h 75.8% 0in /  0.0mm
06:59 54.9 °F /  12.7 °C 47.5 °F /  8.6 °C 29.9in /  1013.1hPa SO 5.9mph /  9.5km/h 8.5mph /  13.7km/h 76.5% 0in /  0.0mm
07:04 54.7 °F /  12.6 °C 47.5 °F /  8.6 °C 29.9in /  1013.1hPa SO 5.4mph /  8.7km/h 9mph /  14.5km/h 77% 0in /  0.0mm
07:09 54.3 °F /  12.4 °C 47.5 °F /  8.6 °C 29.9in /  1013.2hPa SSO 5.2mph /  8.4km/h 9mph /  14.5km/h 77.7% 0in /  0.0mm
07:14 54.1 °F /  12.3 °C 47.5 °F /  8.6 °C 29.9in /  1013.2hPa SSO 5.7mph /  9.1km/h 9.7mph /  15.6km/h 78% 0in /  0.0mm
07:19 54.1 °F /  12.3 °C 47.3 °F /  8.5 °C 29.9in /  1013.2hPa SSO 5.9mph /  9.5km/h 10mph /  16.1km/h 78% 0in /  0.0mm
07:24 54 °F /  12.2 °C 47.3 °F /  8.5 °C 29.9in /  1013.3hPa SSO 5.9mph /  9.5km/h 11.2mph /  18km/h 78% 0in /  0.0mm
07:29 54 °F /  12.2 °C 47.3 °F /  8.5 °C 29.9in /  1013.3hPa SSO 5.9mph /  9.5km/h 12mph /  19.3km/h 78.2% 0in /  0.0mm
07:34 54 °F /  12.2 °C 47.7 °F /  8.7 °C 29.9in /  1013.3hPa SO 6.1mph /  9.8km/h 12mph /  19.3km/h 79% 0in /  0.0mm
07:39 54 °F /  12.2 °C 47.7 °F /  8.7 °C 29.9in /  1013.5hPa SO 6.2mph /  10km/h 10mph /  16.1km/h 79% 0in /  0.0mm
07:44 54 °F /  12.2 °C 47.5 °F /  8.6 °C 29.9in /  1013.5hPa SO 4.9mph /  7.9km/h 8.5mph /  13.7km/h 78.7% 0in /  0.0mm
07:49 54 °F /  12.2 °C 47.3 °F /  8.5 °C 29.9in /  1013.5hPa OSO 4.3mph /  6.9km/h 9mph /  14.5km/h 78% 0in /  0.0mm
07:54 54 °F /  12.2 °C 47.3 °F /  8.5 °C 29.9in /  1013.8hPa OSO 4.6mph /  7.4km/h 8.1mph /  13km/h 78% 0in /  0.0mm
07:59 54 °F /  12.2 °C 47.3 °F /  8.5 °C 29.9in /  1013.8hPa SO 4.7mph /  7.6km/h 8.5mph /  13.7km/h 78.1% 0in /  0.0mm
08:04 54 °F /  12.2 °C 47.7 °F /  8.7 °C 29.9in /  1013.8hPa OSO 3.9mph /  6.3km/h 9mph /  14.5km/h 79% 0in /  0.0mm
08:09 54 °F /  12.2 °C 47.7 °F /  8.7 °C 29.9in /  1014.0hPa SSO 3.6mph /  5.8km/h 6mph /  9.7km/h 79% 0in /  0.0mm
08:14 54 °F /  12.2 °C 47.7 °F /  8.7 °C 29.9in /  1014.0hPa Sur 3.1mph /  5km/h 6.9mph /  11.1km/h 79% 0in /  0.0mm
08:19 53.8 °F /  12.1 °C 47.5 °F /  8.6 °C 29.9in /  1014.0hPa SSE 2.9mph /  4.7km/h 7mph /  11.3km/h 79% 0in /  0.0mm
08:24 53.4 °F /  11.9 °C 47.3 °F /  8.5 °C 29.9in /  1014.1hPa SSE 3.7mph /  5.9km/h 8.1mph /  13km/h 79.6% 0in /  0.0mm
08:29 53.2 °F /  11.8 °C 47.3 °F /  8.5 °C 29.9in /  1014.1hPa SSE 4mph /  6.5km/h 9.2mph /  14.8km/h 80.1% 0in /  0.0mm
08:34 53.1 °F /  11.7 °C 47.5 °F /  8.6 °C 29.9in /  1014.1hPa SSE 5.2mph /  8.4km/h 9mph /  14.5km/h 81% 0in /  0.0mm
08:39 53.1 °F /  11.7 °C 47.5 °F /  8.6 °C 30in /  1014.4hPa SSE 5.9mph /  9.5km/h 9mph /  14.5km/h 81% 0in /  0.0mm
08:44 53.2 °F /  11.8 °C 47.7 °F /  8.7 °C 30in /  1014.4hPa SSE 5.6mph /  9km/h 9mph /  14.5km/h 81% 0in /  0.0mm
08:49 53.4 °F /  11.9 °C 47.5 °F /  8.6 °C 30in /  1014.4hPa SSE 5.4mph /  8.7km/h 7mph /  11.3km/h 80.4% 0in /  0.0mm
08:54 53.6 °F /  12 °C 47.7 °F /  8.7 °C 30in /  1014.5hPa SSE 4.5mph /  7.2km/h 6.2mph /  10km/h 80% 0in /  0.0mm
08:59 54 °F /  12.2 °C 47.7 °F /  8.7 °C 30in /  1014.5hPa SSE 4mph /  6.5km/h 6mph /  9.7km/h 79.2% 0in /  0.0mm
09:04 54.1 °F /  12.3 °C 47.8 °F /  8.8 °C 30in /  1014.5hPa SE 4mph /  6.5km/h 6mph /  9.7km/h 79% 0in /  0.0mm
09:09 54.5 °F /  12.5 °C 48 °F /  8.9 °C 30in /  1014.9hPa SE 4mph /  6.5km/h 6mph /  9.7km/h 78.3% 0in /  0.0mm
09:14 54.9 °F /  12.7 °C 48 °F /  8.9 °C 30in /  1014.9hPa SE 3.4mph /  5.5km/h 6mph /  9.7km/h 78% 0in /  0.0mm
09:19 54.9 °F /  12.7 °C 48 °F /  8.9 °C 30in /  1014.9hPa SE 3.1mph /  5km/h 6.9mph /  11.1km/h 78% 0in /  0.0mm
09:24 54.9 °F /  12.7 °C 48.2 °F /  9 °C 30in /  1015.1hPa SE 4.2mph /  6.8km/h 7.4mph /  11.9km/h 78% 0in /  0.0mm
09:29 55 °F /  12.8 °C 48.4 °F /  9.1 °C 30in /  1015.1hPa SSE 4.7mph /  7.6km/h 7.6mph /  12.2km/h 78% 0in /  0.0mm
09:34 55.4 °F /  13 °C 48 °F /  8.9 °C 30in /  1015.1hPa SSE 5mph /  8.1km/h 9.2mph /  14.8km/h 76.4% 0in /  0.0mm
09:39 55.9 °F /  13.3 °C 48.2 °F /  9 °C 30in /  1015.4hPa Sur 5.2mph /  8.4km/h 9mph /  14.5km/h 75.5% 0in /  0.0mm
09:44 56.5 °F /  13.6 °C 48.4 °F /  9.1 °C 30in /  1015.4hPa Sur 5.2mph /  8.4km/h 7mph /  11.3km/h 74.1% 0in /  0.0mm
09:49 57 °F /  13.9 °C 48.4 °F /  9.1 °C 30in /  1015.4hPa SSE 5.2mph /  8.4km/h 7mph /  11.3km/h 73.1% 0in /  0.0mm
09:54 57.6 °F /  14.2 °C 48.7 °F /  9.3 °C 30in /  1015.5hPa SSE 3.8mph /  6.1km/h 6.2mph /  10km/h 72.3% 0in /  0.0mm
09:59 58.1 °F /  14.5 °C 48.7 °F /  9.3 °C 30in /  1015.5hPa SSO 3.1mph /  5km/h 6.9mph /  11.1km/h 71.1% 0in /  0.0mm
10:04 58.6 °F /  14.8 °C 48.6 °F /  9.2 °C 30in /  1015.5hPa SSO 3.7mph /  6km/h 8.1mph /  13km/h 69.4% 0in /  0.0mm
10:09 59.2 °F /  15.1 °C 48.7 °F /  9.3 °C 30in /  1015.8hPa SSO 4mph /  6.5km/h 8mph /  12.9km/h 68.4% 0in /  0.0mm
10:14 59.5 °F /  15.3 °C 48.6 °F /  9.2 °C 30in /  1015.8hPa Sur 4.5mph /  7.2km/h 8.1mph /  13km/h 67.2% 0in /  0.0mm
10:19 59.9 °F /  15.5 °C 48.7 °F /  9.3 °C 30in /  1015.8hPa SSE 4.7mph /  7.6km/h 8mph /  12.9km/h 66.8% 0in /  0.0mm
10:24 60.1 °F /  15.6 °C 48.7 °F /  9.3 °C 30in /  1016.1hPa SSE 5mph /  8.1km/h 8.1mph /  13km/h 66% 0in /  0.0mm
10:29 60.4 °F /  15.8 °C 49.1 °F /  9.5 °C 30in /  1016.1hPa Sur 5.2mph /  8.4km/h 8mph /  12.9km/h 66.4% 0in /  0.0mm
10:34 60.8 °F /  16 °C 49.3 °F /  9.6 °C 30in /  1016.1hPa Sur 4.1mph /  6.6km/h 6.9mph /  11.1km/h 65.6% 0in /  0.0mm
10:39 61 °F /  16.1 °C 49.1 °F /  9.5 °C 30in /  1016.4hPa Sur 3.6mph /  5.8km/h 7mph /  11.3km/h 65% 0in /  0.0mm
10:44 61.3 °F /  16.3 °C 49.1 °F /  9.5 °C 30in /  1016.4hPa Sur 3.6mph /  5.8km/h 7mph /  11.3km/h 64.4% 0in /  0.0mm
10:49 61.5 °F /  16.4 °C 49.1 °F /  9.5 °C 30in /  1016.4hPa Sur 3.6mph /  5.8km/h 6.9mph /  11.1km/h 64% 0in /  0.0mm
10:54 61.9 °F /  16.6 °C 49.5 °F /  9.7 °C 30in /  1016.6hPa SSE 3.9mph /  6.2km/h 7mph /  11.3km/h 64% 0in /  0.0mm
10:59 62.1 °F /  16.7 °C 49.3 °F /  9.6 °C 30in /  1016.6hPa Sur 4mph /  6.5km/h 6mph /  9.7km/h 63% 0in /  0.0mm
11:04 62.4 °F /  16.9 °C 49.6 °F /  9.8 °C 30in /  1016.6hPa Sur 2.6mph /  4.2km/h 6.2mph /  10km/h 62.9% 0in /  0.0mm
11:09 63 °F /  17.2 °C 49.6 °F /  9.8 °C 30in /  1016.8hPa Sur 2mph /  3.2km/h 9.2mph /  14.8km/h 61.9% 0in /  0.0mm
11:14 63 °F /  17.2 °C 49.3 °F /  9.6 °C 30in /  1016.8hPa OSO 3mph /  4.9km/h 9mph /  14.5km/h 60.9% 0in /  0.0mm
11:19 63.1 °F /  17.3 °C 49.1 °F /  9.5 °C 30in /  1016.8hPa OSO 3.6mph /  5.8km/h 8.1mph /  13km/h 60% 0in /  0.0mm
11:24 63.5 °F /  17.5 °C 49.3 °F /  9.6 °C 30in /  1016.8hPa Oeste 3.2mph /  5.2km/h 13mph /  20.9km/h 59.9% 0in /  0.0mm
11:29 63.9 °F /  17.7 °C 49.1 °F /  9.5 °C 30in /  1016.7hPa Oeste 3.1mph /  5km/h 13mph /  20.9km/h 59% 0in /  0.0mm
11:34 64 °F /  17.8 °C 48.9 °F /  9.4 °C 30in /  1016.7hPa Oeste 4.2mph /  6.7km/h 10.4mph /  16.7km/h 58% 0in /  0.0mm
11:39 64.2 °F /  17.9 °C 48.6 °F /  9.2 °C 30in /  1016.8hPa Oeste 4.7mph /  7.6km/h 16.3mph /  26.2km/h 56.9% 0in /  0.0mm
11:44 64.2 °F /  17.9 °C 48.4 °F /  9.1 °C 30in /  1016.8hPa Oeste 6.6mph /  10.7km/h 17.5mph /  28.2km/h 56.3% 0in /  0.0mm
11:49 64.4 °F /  18 °C 48.4 °F /  9.1 °C 30in /  1016.8hPa ONO 7.6mph /  12.2km/h 17mph /  27.4km/h 56% 0in /  0.0mm
11:54 64.8 °F /  18.2 °C 48.6 °F /  9.2 °C 30in /  1016.8hPa ONO 8mph /  12.8km/h 19.2mph /  30.9km/h 55.8% 0in /  0.0mm
11:59 64.4 °F /  18 °C 47.8 °F /  8.8 °C 30in /  1016.8hPa ONO 8.1mph /  13km/h 23.5mph /  37.8km/h 55% 0in /  0.0mm
12:04 64.2 °F /  17.9 °C 48 °F /  8.9 °C 30in /  1016.8hPa ONO 9.9mph /  16km/h 23mph /  37km/h 55.6% 0in /  0.0mm
12:09 64 °F /  17.8 °C 48 °F /  8.9 °C 30in /  1017.0hPa ONO 10.7mph /  17.2km/h 17.3mph /  27.8km/h 56.1% 0in /  0.0mm
12:14 64.4 °F /  18 °C 48.6 °F /  9.2 °C 30in /  1017.0hPa Oeste 7.8mph /  12.5km/h 17mph /  27.4km/h 56.2% 0in /  0.0mm
12:19 64.9 °F /  18.3 °C 48.2 °F /  9 °C 30in /  1017.0hPa ONO 6.4mph /  10.3km/h 18.4mph /  29.6km/h 54.7% 0in /  0.0mm
12:24 65.5 °F /  18.6 °C 48.4 °F /  9.1 °C 30in /  1017.1hPa Oeste 8.6mph /  13.8km/h 18mph /  29km/h 54.2% 0in /  0.0mm
12:29 65.8 °F /  18.8 °C 48.6 °F /  9.2 °C 30in /  1017.1hPa Oeste 9.7mph /  15.6km/h 19mph /  30.6km/h 53.7% 0in /  0.0mm
12:34 65.7 °F /  18.7 °C 48.4 °F /  9.1 °C 30in /  1017.1hPa ONO 9.9mph /  15.9km/h 19mph /  30.6km/h 53.4% 0in /  0.0mm
12:39 65.7 °F /  18.7 °C 48.6 °F /  9.2 °C 30in /  1017.1hPa ONO 10mph /  16.1km/h 18mph /  29km/h 54% 0in /  0.0mm
12:44 65.5 °F /  18.6 °C 48.7 °F /  9.3 °C 30in /  1017.1hPa ONO 9.1mph /  14.7km/h 17mph /  27.4km/h 54.9% 0in /  0.0mm
12:49 64.9 °F /  18.3 °C 48.9 °F /  9.4 °C 30in /  1017.1hPa ONO 8.7mph /  14km/h 14mph /  22.5km/h 55.8% 0in /  0.0mm
12:54 64.8 °F /  18.2 °C 48.9 °F /  9.4 °C 30in /  1017.1hPa ONO 8.6mph /  13.8km/h 15.2mph /  24.5km/h 56.3% 0in /  0.0mm
12:59 64.9 °F /  18.3 °C 48.9 °F /  9.4 °C 30in /  1017.1hPa ONO 8.5mph /  13.7km/h 15mph /  24.1km/h 56% 0in /  0.0mm
13:04 65.1 °F /  18.4 °C 48.6 °F /  9.2 °C 30in /  1017.1hPa ONO 8.2mph /  13.2km/h 15mph /  24.1km/h 55.1% 0in /  0.0mm
13:09 65.1 °F /  18.4 °C 48.2 °F /  9 °C 30in /  1017.1hPa ONO 8.1mph /  13km/h 15mph /  24.1km/h 54.4% 0in /  0.0mm
13:14 65.3 °F /  18.5 °C 48.4 °F /  9.1 °C 30in /  1017.1hPa NO 8.8mph /  14.2km/h 15mph /  24.1km/h 54.1% 0in /  0.0mm
13:19 65.7 °F /  18.7 °C 48.2 °F /  9 °C 30in /  1017.1hPa ONO 9.2mph /  14.8km/h 13mph /  20.9km/h 53.4% 0in /  0.0mm
13:24 65.5 °F /  18.6 °C 48 °F /  8.9 °C 30in /  1017.1hPa Oeste 8.1mph /  13.1km/h 13.8mph /  22.2km/h 53.1% 0in /  0.0mm
13:29 65.5 °F /  18.6 °C 47.8 °F /  8.8 °C 30in /  1017.0hPa Oeste 7.6mph /  12.2km/h 14mph /  22.5km/h 53% 0in /  0.0mm
13:34 65.5 °F /  18.6 °C 47.8 °F /  8.8 °C 30in /  1017.0hPa Oeste 7.5mph /  12km/h 13.8mph /  22.2km/h 53% 0in /  0.0mm
13:39 65.5 °F /  18.6 °C 48 °F /  8.9 °C 30in /  1017.0hPa ONO 7.4mph /  11.9km/h 14mph /  22.5km/h 53.2% 0in /  0.0mm
13:44 65.7 °F /  18.7 °C 48.6 °F /  9.2 °C 30in /  1016.9hPa ONO 6.7mph /  10.8km/h 11mph /  17.7km/h 54% 0in /  0.0mm
13:49 65.7 °F /  18.7 °C 48.4 °F /  9.1 °C 30in /  1016.9hPa ONO 6.4mph /  10.3km/h 13.8mph /  22.2km/h 53.6% 0in /  0.0mm
13:54 65.7 °F /  18.7 °C 48 °F /  8.9 °C 30in /  1016.9hPa ONO 6.4mph /  10.3km/h 14mph /  22.5km/h 52.9% 0in /  0.0mm
13:59 65.8 °F /  18.8 °C 47.5 °F /  8.6 °C 30in /  1016.7hPa ONO 6.4mph /  10.3km/h 16.1mph /  25.9km/h 51.4% 0in /  0.0mm
14:04 66 °F /  18.9 °C 47.3 °F /  8.5 °C 30in /  1016.7hPa ONO 7.3mph /  11.7km/h 16mph /  25.7km/h 51% 0in /  0.0mm
14:09 65.8 °F /  18.8 °C 47.1 °F /  8.4 °C 30in /  1016.9hPa ONO 7.6mph /  12.2km/h 14mph /  22.5km/h 51% 0in /  0.0mm
14:14 65.8 °F /  18.8 °C 47.7 °F /  8.7 °C 30in /  1016.9hPa ONO 8.2mph /  13.2km/h 16.1mph /  25.9km/h 51.9% 0in /  0.0mm
14:19 65.8 °F /  18.8 °C 47.3 °F /  8.5 °C 30in /  1016.9hPa ONO 8.5mph /  13.7km/h 16mph /  25.7km/h 51.1% 0in /  0.0mm
14:24 66 °F /  18.9 °C 46.8 °F /  8.2 °C 30in /  1016.9hPa ONO 8.6mph /  13.9km/h 18.4mph /  29.6km/h 50% 0in /  0.0mm
14:29 66 °F /  18.9 °C 46.9 °F /  8.3 °C 30in /  1016.9hPa ONO 8.7mph /  14km/h 18mph /  29km/h 50.2% 0in /  0.0mm
14:34 66 °F /  18.9 °C 46.8 °F /  8.2 °C 30in /  1016.9hPa ONO 8.6mph /  13.8km/h 15mph /  24.1km/h 50% 0in /  0.0mm
14:39 66.2 °F /  19 °C 46.8 °F /  8.2 °C 30in /  1016.9hPa ONO 8.5mph /  13.7km/h 17.3mph /  27.8km/h 49.6% 0in /  0.0mm
14:44 66.4 °F /  19.1 °C 46.9 °F /  8.3 °C 30in /  1016.9hPa ONO 8.5mph /  13.7km/h 17.5mph /  28.2km/h 49.7% 0in /  0.0mm
14:49 66 °F /  18.9 °C 46.6 °F /  8.1 °C 30in /  1016.9hPa ONO 8.5mph /  13.7km/h 17mph /  27.4km/h 49.4% 0in /  0.0mm
14:54 66.2 °F /  19 °C 46.6 °F /  8.1 °C 30in /  1016.9hPa Oeste 8.2mph /  13.2km/h 15.2mph /  24.5km/h 49.4% 0in /  0.0mm
14:59 66.6 °F /  19.2 °C 46.8 °F /  8.2 °C 30in /  1016.8hPa Oeste 8.1mph /  13km/h 15mph /  24.1km/h 49% 0in /  0.0mm
15:04 66.7 °F /  19.3 °C 46.8 °F /  8.2 °C 30in /  1016.8hPa Oeste 8.5mph /  13.7km/h 16.3mph /  26.2km/h 48.5% 0in /  0.0mm
15:09 66.9 °F /  19.4 °C 46.4 °F /  8 °C 30in /  1016.8hPa Oeste 8.7mph /  14km/h 16mph /  25.7km/h 47.8% 0in /  0.0mm
15:14 67.1 °F /  19.5 °C 46.4 °F /  8 °C 30in /  1016.7hPa Oeste 8.7mph /  14km/h 15mph /  24.1km/h 47.1% 0in /  0.0mm
15:19 67.5 °F /  19.7 °C 46.4 °F /  8 °C 30in /  1016.7hPa ONO 8.7mph /  14km/h 15mph /  24.1km/h 47% 0in /  0.0mm
15:24 67.3 °F /  19.6 °C 46.4 °F /  8 °C 30in /  1016.7hPa Oeste 7.5mph /  12.1km/h 14mph /  22.5km/h 47% 0in /  0.0mm
15:29 66.9 °F /  19.4 °C 46.2 °F /  7.9 °C 30in /  1016.7hPa ONO 6.9mph /  11.1km/h 14mph /  22.5km/h 47.3% 0in /  0.0mm
15:34 66.7 °F /  19.3 °C 46.4 °F /  8 °C 30in /  1016.7hPa ONO 7.3mph /  11.7km/h 13mph /  20.9km/h 48% 0in /  0.0mm
15:39 66.7 °F /  19.3 °C 46.6 °F /  8.1 °C 30in /  1016.7hPa Oeste 7.4mph /  11.9km/h 13mph /  20.9km/h 48.2% 0in /  0.0mm
15:44 67.3 °F /  19.6 °C 46.6 °F /  8.1 °C 30in /  1016.7hPa ONO 6mph /  9.6km/h 15.2mph /  24.5km/h 47.5% 0in /  0.0mm
15:49 67.6 °F /  19.8 °C 46.4 °F /  8 °C 30in /  1016.7hPa ONO 5.2mph /  8.4km/h 17.5mph /  28.2km/h 46.6% 0in /  0.0mm
15:54 67.6 °F /  19.8 °C 46 °F /  7.8 °C 30in /  1016.7hPa Oeste 7.4mph /  11.9km/h 17mph /  27.4km/h 46% 0in /  0.0mm
15:59 67.6 °F /  19.8 °C 45.9 °F /  7.7 °C 30in /  1016.6hPa ONO 8.5mph /  13.7km/h 16mph /  25.7km/h 45.8% 0in /  0.0mm
16:04 67.8 °F /  19.9 °C 46.6 °F /  8.1 °C 30in /  1016.6hPa NO 7.7mph /  12.4km/h 11.5mph /  18.5km/h 46.5% 0in /  0.0mm
16:09 68.2 °F /  20.1 °C 47.3 °F /  8.5 °C 30in /  1016.6hPa NO 7.4mph /  11.9km/h 12mph /  19.3km/h 47% 0in /  0.0mm
16:14 68.5 °F /  20.3 °C 47.1 °F /  8.4 °C 30in /  1016.4hPa NO 6.3mph /  10.2km/h 11.8mph /  19km/h 46.6% 0in /  0.0mm
16:19 68.5 °F /  20.3 °C 46.9 °F /  8.3 °C 30in /  1016.4hPa ONO 5.9mph /  9.5km/h 12mph /  19.3km/h 45.9% 0in /  0.0mm
16:24 68.9 °F /  20.5 °C 46.6 °F /  8.1 °C 30in /  1016.6hPa Oeste 6.1mph /  9.8km/h 12.7mph /  20.4km/h 45.1% 0in /  0.0mm
16:29 69.3 °F /  20.7 °C 46.6 °F /  8.1 °C 30in /  1016.6hPa Oeste 6.2mph /  10km/h 16.3mph /  26.2km/h 44.5% 0in /  0.0mm
16:34 69.3 °F /  20.7 °C 46.4 °F /  8 °C 30in /  1016.6hPa Oeste 6.6mph /  10.7km/h 16.1mph /  25.9km/h 44.1% 0in /  0.0mm
16:39 69.4 °F /  20.8 °C 46.6 °F /  8.1 °C 30in /  1016.7hPa OSO 6.9mph /  11.1km/h 15mph /  24.1km/h 44% 0in /  0.0mm
16:44 69.4 °F /  20.8 °C 46.6 °F /  8.1 °C 30in /  1016.7hPa Oeste 7.2mph /  11.6km/h 15mph /  24.1km/h 44% 0in /  0.0mm
16:49 69.4 °F /  20.8 °C 46.6 °F /  8.1 °C 30in /  1016.7hPa OSO 7.4mph /  11.9km/h 12mph /  19.3km/h 43.9% 0in /  0.0mm
16:54 69.6 °F /  20.9 °C 46.2 °F /  7.9 °C 30in /  1016.8hPa OSO 6.1mph /  9.8km/h 10.4mph /  16.7km/h 43.1% 0in /  0.0mm
16:59 69.8 °F /  21 °C 46.4 °F /  8 °C 30in /  1016.8hPa Oeste 5.4mph /  8.7km/h 11.5mph /  18.5km/h 43% 0in /  0.0mm
17:04 69.8 °F /  21 °C 46.4 °F /  8 °C 30in /  1016.8hPa Oeste 6mph /  9.6km/h 13.8mph /  22.2km/h 43.1% 0in /  0.0mm
17:09 69.4 °F /  20.8 °C 46.2 °F /  7.9 °C 30in /  1017.0hPa ONO 6.2mph /  10km/h 14.5mph /  23.3km/h 43.3% 0in /  0.0mm
17:14 69.4 °F /  20.8 °C 46.2 °F /  7.9 °C 30in /  1017.0hPa ONO 7.5mph /  12km/h 15mph /  24.1km/h 43.2% 0in /  0.0mm
17:19 69.4 °F /  20.8 °C 46.6 °F /  8.1 °C 30in /  1017.0hPa Oeste 8.1mph /  13km/h 16.1mph /  25.9km/h 44% 0in /  0.0mm
17:24 69.6 °F /  20.9 °C 46.6 °F /  8.1 °C 30in /  1017.1hPa Oeste 7.3mph /  11.7km/h 16mph /  25.7km/h 43.7% 0in /  0.0mm
17:29 69.6 °F /  20.9 °C 45.5 °F /  7.5 °C 30in /  1017.1hPa ONO 6.9mph /  11.1km/h 19mph /  30.6km/h 42% 0in /  0.0mm
17:34 69.8 °F /  21 °C 45.3 °F /  7.4 °C 30in /  1017.1hPa Oeste 8.8mph /  14.1km/h 19mph /  30.6km/h 41.5% 0in /  0.0mm
17:39 69.8 °F /  21 °C 45.5 °F /  7.5 °C 30in /  1017.4hPa ONO 9.7mph /  15.6km/h 16mph /  25.7km/h 41.7% 0in /  0.0mm
17:44 69.6 °F /  20.9 °C 45.7 °F /  7.6 °C 30in /  1017.4hPa ONO 8.9mph /  14.3km/h 15mph /  24.1km/h 42.3% 0in /  0.0mm
17:49 69.6 °F /  20.9 °C 45.9 °F /  7.7 °C 30in /  1017.4hPa NO 8.5mph /  13.7km/h 15mph /  24.1km/h 42.7% 0in /  0.0mm
17:54 69.6 °F /  20.9 °C 46 °F /  7.8 °C 30.1in /  1017.5hPa NO 7.8mph /  12.5km/h 15mph /  24.1km/h 42.8% 0in /  0.0mm
17:59 69.6 °F /  20.9 °C 46.2 °F /  7.9 °C 30.1in /  1017.5hPa NO 7.4mph /  11.9km/h 14mph /  22.5km/h 43.2% 0in /  0.0mm
18:04 69.6 °F /  20.9 °C 46.2 °F /  7.9 °C 30.1in /  1017.5hPa NO 5.8mph /  9.4km/h 9.7mph /  15.6km/h 43.2% 0in /  0.0mm
18:09 69.6 °F /  20.9 °C 46.2 °F /  7.9 °C 30.1in /  1017.6hPa NO 5.2mph /  8.4km/h 10.4mph /  16.7km/h 43% 0in /  0.0mm
18:14 69.8 °F /  21 °C 46.8 °F /  8.2 °C 30.1in /  1017.6hPa NNO 5.3mph /  8.6km/h 10mph /  16.1km/h 43.9% 0in /  0.0mm
18:19 69.8 °F /  21 °C 46.9 °F /  8.3 °C 30.1in /  1017.6hPa NO 5.4mph /  8.7km/h 7mph /  11.3km/h 44% 0in /  0.0mm
18:24 69.8 °F /  21 °C 47.1 °F /  8.4 °C 30.1in /  1017.7hPa NNO 3.9mph /  6.3km/h 7.6mph /  12.2km/h 44.3% 0in /  0.0mm
18:29 69.8 °F /  21 °C 46.6 °F /  8.1 °C 30.1in /  1017.7hPa NO 3.1mph /  5km/h 8.1mph /  13km/h 43.7% 0in /  0.0mm
18:34 69.6 °F /  20.9 °C 46.6 °F /  8.1 °C 30.1in /  1017.7hPa NO 3.7mph /  6km/h 7mph /  11.3km/h 43.8% 0in /  0.0mm
18:39 69.6 °F /  20.9 °C 46.2 °F /  7.9 °C 30.1in /  1017.9hPa ONO 4mph /  6.5km/h 11.8mph /  19km/h 43.2% 0in /  0.0mm
18:44 69.4 °F /  20.8 °C 46 °F /  7.8 °C 30.1in /  1017.9hPa ONO 4.8mph /  7.8km/h 12mph /  19.3km/h 42.9% 0in /  0.0mm
18:49 69.4 °F /  20.8 °C 46 °F /  7.8 °C 30.1in /  1017.9hPa ONO 5.2mph /  8.4km/h 9mph /  14.5km/h 43% 0in /  0.0mm
18:54 69.4 °F /  20.8 °C 46 °F /  7.8 °C 30.1in /  1017.9hPa ONO 4.4mph /  7.1km/h 5.9mph /  9.5km/h 43% 0in /  0.0mm
18:59 69.3 °F /  20.7 °C 45.9 °F /  7.7 °C 30.1in /  1017.9hPa ONO 4mph /  6.5km/h 6.2mph /  10km/h 43.1% 0in /  0.0mm
19:04 69.1 °F /  20.6 °C 46 °F /  7.8 °C 30.1in /  1017.9hPa ONO 4mph /  6.5km/h 6.4mph /  10.3km/h 43.5% 0in /  0.0mm
19:09 69.1 °F /  20.6 °C 46 °F /  7.8 °C 30.1in /  1018.0hPa ONO 4mph /  6.5km/h 7mph /  11.3km/h 43.8% 0in /  0.0mm
19:14 68.7 °F /  20.4 °C 45.5 °F /  7.5 °C 30.1in /  1018.0hPa ONO 4.2mph /  6.8km/h 10mph /  16.1km/h 43.4% 0in /  0.0mm
19:19 68.7 °F /  20.4 °C 45.3 °F /  7.4 °C 30.1in /  1018.0hPa Oeste 4.3mph /  6.9km/h 10.4mph /  16.7km/h 43.1% 0in /  0.0mm
19:24 68.5 °F /  20.3 °C 45.7 °F /  7.6 °C 30.1in /  1018.2hPa ONO 4.6mph /  7.4km/h 11.4mph /  18.3km/h 43.7% 0in /  0.0mm
19:29 68.5 °F /  20.3 °C 45.1 °F /  7.3 °C 30.1in /  1018.2hPa ONO 4.7mph /  7.6km/h 12mph /  19.3km/h 43% 0in /  0.0mm
19:34 68.5 °F /  20.3 °C 45.3 °F /  7.4 °C 30.1in /  1018.2hPa ONO 5.5mph /  8.8km/h 9mph /  14.5km/h 43.2% 0in /  0.0mm
19:39 68.4 °F /  20.2 °C 45 °F /  7.2 °C 30.1in /  1018.3hPa ONO 5.9mph /  9.5km/h 11.5mph /  18.5km/h 43% 0in /  0.0mm
19:44 68.4 °F /  20.2 °C 45 °F /  7.2 °C 30.1in /  1018.3hPa ONO 6.1mph /  9.8km/h 13.7mph /  22km/h 43% 0in /  0.0mm
19:49 68.4 °F /  20.2 °C 45 °F /  7.2 °C 30.1in /  1018.3hPa ONO 6.2mph /  10km/h 14mph /  22.5km/h 43% 0in /  0.0mm
19:54 68.4 °F /  20.2 °C 45 °F /  7.2 °C 30.1in /  1018.6hPa ONO 6.6mph /  10.7km/h 14mph /  22.5km/h 43% 0in /  0.0mm
19:59 68.2 °F /  20.1 °C 44.8 °F /  7.1 °C 30.1in /  1018.6hPa ONO 6.9mph /  11.1km/h 10mph /  16.1km/h 43% 0in /  0.0mm
20:04 68 °F /  20 °C 45.3 °F /  7.4 °C 30.1in /  1018.6hPa ONO 5.7mph /  9.1km/h 8mph /  12.9km/h 43.9% 0in /  0.0mm
20:09 67.6 °F /  19.8 °C 45.3 °F /  7.4 °C 30.1in /  1018.8hPa Oeste 5.2mph /  8.4km/h 6mph /  9.7km/h 44.6% 0in /  0.0mm
20:14 67.5 °F /  19.7 °C 45.3 °F /  7.4 °C 30.1in /  1018.8hPa SSO 3.4mph /  5.4km/h 5mph /  8km/h 44.9% 0in /  0.0mm
20:19 67.5 °F /  19.7 °C 45.5 °F /  7.5 °C 30.1in /  1018.8hPa SSO 2.4mph /  3.9km/h 5mph /  8km/h 45.3% 0in /  0.0mm
20:24 67.5 °F /  19.7 °C 45.9 °F /  7.7 °C 30.1in /  1019.1hPa SSO 2.4mph /  3.9km/h 5mph /  8km/h 46% 0in /  0.0mm
20:29 67.5 °F /  19.7 °C 45.9 °F /  7.7 °C 30.1in /  1019.1hPa SSO 2.4mph /  3.9km/h 5mph /  8km/h 46% 0in /  0.0mm
20:34 67.3 °F /  19.6 °C 45.9 °F /  7.7 °C 30.1in /  1019.1hPa SSO 2.1mph /  3.4km/h 6.9mph /  11.1km/h 46.1% 0in /  0.0mm
20:39 67.3 °F /  19.6 °C 46.4 °F /  8 °C 30.1in /  1019.3hPa OSO 2mph /  3.2km/h 7mph /  11.3km/h 47% 0in /  0.0mm
20:44 66.9 °F /  19.4 °C 46.2 °F /  7.9 °C 30.1in /  1019.3hPa OSO 3.1mph /  5km/h 6mph /  9.7km/h 47.2% 0in /  0.0mm
20:49 66.7 °F /  19.3 °C 46.4 °F /  8 °C 30.1in /  1019.3hPa OSO 3.6mph /  5.8km/h 5mph /  8km/h 48% 0in /  0.0mm
20:54 66.4 °F /  19.1 °C 46.4 °F /  8 °C 30.1in /  1019.6hPa SO 3.1mph /  5km/h 5.9mph /  9.5km/h 48.7% 0in /  0.0mm
20:59 66 °F /  18.9 °C 46.2 °F /  7.9 °C 30.1in /  1019.6hPa SO 2.9mph /  4.7km/h 6mph /  9.7km/h 49% 0in /  0.0mm
21:04 66 °F /  18.9 °C 46.2 °F /  7.9 °C 30.1in /  1019.6hPa SSO 3.4mph /  5.4km/h 5.9mph /  9.5km/h 49% 0in /  0.0mm
21:09 66 °F /  18.9 °C 46 °F /  7.8 °C 30.1in /  1019.7hPa SO 3.6mph /  5.8km/h 6.2mph /  10km/h 48.6% 0in /  0.0mm
21:14 66.2 °F /  19 °C 46.6 °F /  8.1 °C 30.1in /  1019.7hPa SO 3.9mph /  6.2km/h 6.2mph /  10km/h 49% 0in /  0.0mm
21:19 66 °F /  18.9 °C 46 °F /  7.8 °C 30.1in /  1019.7hPa SO 4mph /  6.5km/h 7.4mph /  11.9km/h 48.4% 0in /  0.0mm
21:24 66.2 °F /  19 °C 46.4 °F /  8 °C 30.1in /  1019.9hPa OSO 4.5mph /  7.2km/h 7mph /  11.3km/h 48.9% 0in /  0.0mm
21:29 66 °F /  18.9 °C 46.4 °F /  8 °C 30.1in /  1019.9hPa OSO 4.7mph /  7.6km/h 7mph /  11.3km/h 49.2% 0in /  0.0mm
21:34 65.8 °F /  18.8 °C 46.6 °F /  8.1 °C 30.1in /  1019.9hPa OSO 4.2mph /  6.8km/h 6mph /  9.7km/h 50% 0in /  0.0mm
21:39 65.7 °F /  18.7 °C 46.6 °F /  8.1 °C 30.1in /  1019.9hPa OSO 4mph /  6.5km/h 9.2mph /  14.8km/h 50% 0in /  0.0mm
21:44 65.7 °F /  18.7 °C 46.8 °F /  8.2 °C 30.1in /  1019.9hPa SO 4.2mph /  6.8km/h 9mph /  14.5km/h 50.6% 0in /  0.0mm
21:49 65.5 °F /  18.6 °C 47.3 °F /  8.5 °C 30.1in /  1019.9hPa SSE 4.3mph /  6.9km/h 6.2mph /  10km/h 51.8% 0in /  0.0mm
21:54 64.6 °F /  18.1 °C 48 °F /  8.9 °C 30.1in /  1020.2hPa SE 4.1mph /  6.6km/h 8.1mph /  13km/h 55.2% 0in /  0.0mm
21:56 63.3 °F /  17.4 °C 48 °F /  8.9 °C 30.1in /  1020.2hPa SE 4mph /  6.5km/h 8.1mph /  13km/h 57.3% 0in /  0.0mm
22:04 62.4 °F /  16.9 °C 47.5 °F /  8.6 °C 30.1in /  1020.2hPa SE 5.4mph /  8.7km/h 8.1mph /  13km/h 58% 0in /  0.0mm
22:09 62.6 °F /  17 °C 47.5 °F /  8.6 °C 30.1in /  1020.5hPa SSE 5.4mph /  8.7km/h 8.1mph /  13km/h 58% 0in /  0.0mm
22:14 62.8 °F /  17.1 °C 47.3 °F /  8.5 °C 30.1in /  1020.5hPa SSE 4.5mph /  7.2km/h 7.4mph /  11.9km/h 57% 0in /  0.0mm
22:19 63 °F /  17.2 °C 47.3 °F /  8.5 °C 30.1in /  1020.5hPa Sur 4.3mph /  6.9km/h 7mph /  11.3km/h 56.6% 0in /  0.0mm
22:24 63.1 °F /  17.3 °C 47.1 °F /  8.4 °C 30.1in /  1020.5hPa SSO 4.6mph /  7.4km/h 8.1mph /  13km/h 56% 0in /  0.0mm
22:29 63.3 °F /  17.4 °C 47.1 °F /  8.4 °C 30.1in /  1020.5hPa SSO 4.7mph /  7.6km/h 8mph /  12.9km/h 55.6% 0in /  0.0mm
22:34 63.9 °F /  17.7 °C 47.1 °F /  8.4 °C 30.1in /  1020.5hPa OSO 4.7mph /  7.6km/h 7.4mph /  11.9km/h 54.5% 0in /  0.0mm
22:39 64.2 °F /  17.9 °C 47.1 °F /  8.4 °C 30.1in /  1020.6hPa OSO 4.7mph /  7.6km/h 7.6mph /  12.2km/h 54% 0in /  0.0mm
22:44 64.2 °F /  17.9 °C 47.1 °F /  8.4 °C 30.1in /  1020.6hPa Oeste 4.7mph /  7.6km/h 8.1mph /  13km/h 54% 0in /  0.0mm
22:49 64 °F /  17.8 °C 47.3 °F /  8.5 °C 30.1in /  1020.6hPa Oeste 4.7mph /  7.6km/h 13.5mph /  21.7km/h 54.9% 0in /  0.0mm
22:54 64 °F /  17.8 °C 46.9 °F /  8.3 °C 30.1in /  1020.6hPa Oeste 5.6mph /  9km/h 14mph /  22.5km/h 53.7% 0in /  0.0mm
22:59 64.6 °F /  18.1 °C 46.8 °F /  8.2 °C 30.1in /  1020.6hPa Oeste 5.9mph /  9.5km/h 14mph /  22.5km/h 52.3% 0in /  0.0mm
23:04 64.9 °F /  18.3 °C 46.9 °F /  8.3 °C 30.1in /  1020.6hPa Oeste 6.2mph /  9.9km/h 12mph /  19.3km/h 52% 0in /  0.0mm
23:09 64.9 °F /  18.3 °C 46.9 °F /  8.3 °C 30.1in /  1020.7hPa Oeste 6.2mph /  10km/h 9.7mph /  15.6km/h 52% 0in /  0.0mm
23:14 64.8 °F /  18.2 °C 46.8 °F /  8.2 °C 30.1in /  1020.7hPa Oeste 5.5mph /  8.8km/h 10mph /  16.1km/h 52% 0in /  0.0mm
23:19 64.8 °F /  18.2 °C 46.9 °F /  8.3 °C 30.1in /  1020.7hPa SO 5.2mph /  8.4km/h 8mph /  12.9km/h 52.4% 0in /  0.0mm
23:24 64.6 °F /  18.1 °C 47.1 °F /  8.4 °C 30.2in /  1021.0hPa SO 4.3mph /  7km/h 7mph /  11.3km/h 53% 0in /  0.0mm
23:29 64.4 °F /  18 °C 46.9 °F /  8.3 °C 30.2in /  1021.0hPa SO 4mph /  6.5km/h 8.1mph /  13km/h 53% 0in /  0.0mm
23:34 64.4 °F /  18 °C 46.9 °F /  8.3 °C 30.2in /  1021.0hPa SO 4.5mph /  7.3km/h 9.2mph /  14.8km/h 53% 0in /  0.0mm
23:39 64.6 °F /  18.1 °C 47.1 °F /  8.4 °C 30.2in /  1021.1hPa SSO 4.7mph /  7.6km/h 9mph /  14.5km/h 53% 0in /  0.0mm
23:44 64.6 °F /  18.1 °C 47.1 °F /  8.4 °C 30.2in /  1021.1hPa SSO 4.4mph /  7.1km/h 6.9mph /  11.1km/h 53% 0in /  0.0mm
23:49 64.2 °F /  17.9 °C 46.8 °F /  8.2 °C 30.2in /  1021.1hPa SSO 4.3mph /  6.9km/h 8.1mph /  13km/h 53% 0in /  0.0mm
23:54 64.2 °F /  17.9 °C 46.8 °F /  8.2 °C 30.2in /  1021.3hPa OSO 4.6mph /  7.4km/h 8.5mph /  13.7km/h 53% 0in /  0.0mm
23:59 64.2 °F /  17.9 °C 46.8 °F /  8.2 °C 30.2in /  1021.3hPa OSO 4.7mph /  7.6km/h 9.2mph /  14.8km/h 53% 0in /  0.0mm
Murcia-Puente Tocinos, España
Compliments of Weather Underground - 2.75 mb

La estación de MeteoMurcia.com, publica sus datos en los siguientes proyectos:

Weather Underground PWS IMURCIAP2 Meteoclimatic www.awekas.at

W3Counter
Web Analytics